DW8495 Ramrod Key FL US current weather conditions

sailwx.info

Wind from 013 at 3 knots gusting 6

Air temperature 20.0° C
Dewpoint 19.0° C

Last reported at 2020-Jan-25 14:00 UTC.
Time now 2020-Jan-25 15:14 UTC

Location: N 24°39' W 081°24'.
View on Google Maps.

See reports from other nearby stations

  
Tides and Currents Weather Stations Pressure Air Temp Water Temp Dewpoint Dewpoint Depression Visibility Wind Speed Wind Dir Waves Ship Positions
date/time (UTC)wind fromknots sea level pressurealtimeterstation pressurevisibilityair tempwater tempwave heightnotes
2020-Jan-25 14:00 013 3 gusting 6 20.0
2020-Jan-25 13:50 008 2 gusting 6 20.0
2020-Jan-25 13:20 008 3 gusting 6 20.0
2020-Jan-25 13:10 037 3 gusting 6 19.4
2020-Jan-25 12:50 020 3 gusting 5 19.4
2020-Jan-25 12:40 010 2 gusting 3 19.4
2020-Jan-25 12:30 036 2 gusting 4 19.4
2020-Jan-25 12:20 051 3 gusting 3 19.4
2020-Jan-25 01:40 135 1 gusting 4 21.7
2020-Jan-25 01:20 147 2 gusting 3 21.1
2020-Jan-25 01:10 149 3 gusting 6 21.1
2020-Jan-25 01:00 144 2 gusting 6 21.1
2020-Jan-25 00:50 143 4 gusting 6 20.6
2020-Jan-25 00:40 152 3 gusting 8 20.6
2020-Jan-25 00:20 172 5 gusting 8 20.6
2020-Jan-25 00:00 162 3 gusting 6 20.6
2020-Jan-24 23:50 185 4 gusting 6 20.6
2020-Jan-24 23:30 174 4 gusting 6 20.6
2020-Jan-24 23:20 178 3 gusting 6 20.6
2020-Jan-24 23:00 168 4 gusting 7 20.6
2020-Jan-24 22:40 146 4 gusting 9 20.6
2020-Jan-24 22:20 148 4 gusting 7 20.6
2020-Jan-24 22:00 153 4 gusting 7 21.1
2020-Jan-24 21:40 156 3 gusting 5 21.1
2020-Jan-24 21:10 134 4 gusting 6 21.1
2020-Jan-24 20:50 149 2 gusting 3 21.1
2020-Jan-24 20:40 145 2 gusting 5 21.1
2020-Jan-24 20:30 153 2 gusting 5 21.1
2020-Jan-24 20:00 171 1 gusting 4 21.1
2020-Jan-24 19:50 181 1 gusting 2 21.1
2020-Jan-24 19:40 177 0 gusting 2 21.1
2020-Jan-24 19:20 134 1 gusting 4 20.6
2020-Jan-24 19:10 136 3 gusting 6 21.1
2020-Jan-24 18:50 079 6 gusting 9 21.7
2020-Jan-24 18:40 072 5 gusting 8 21.7
2020-Jan-24 18:10 082 4 gusting 7 21.7
2020-Jan-24 18:00 072 4 gusting 6 21.7
2020-Jan-24 17:50 088 5 gusting 6 21.7
2020-Jan-24 17:30 056 6 gusting 9 21.7
2020-Jan-24 17:20 052 6 gusting 10 21.7
2020-Jan-24 16:40 034 6 gusting 9 21.1
2020-Jan-24 16:10 050 4 gusting 7 20.6
2020-Jan-24 16:00 059 5 gusting 10 20.6
2020-Jan-24 15:40 049 6 gusting 11 20.6
2020-Jan-24 15:20 030 5 gusting 9 20.0
2020-Jan-24 15:10 032 5 gusting 8 20.0
2020-Jan-24 15:00 026 5 gusting 9 20.0
2020-Jan-24 14:50 025 5 gusting 9 19.4
2020-Jan-24 14:40 035 5 gusting 9 19.4
2020-Jan-24 14:20 347 4 gusting 6 20.0
2020-Jan-24 13:30 347 1 gusting 4 19.4
2020-Jan-24 13:20 331 2 gusting 5 19.4
2020-Jan-24 13:10 001 2 gusting 5 19.4
2020-Jan-24 13:00 008 1 gusting 3 19.4
2020-Jan-24 12:50 006 1 gusting 3 19.4
2020-Jan-24 12:20 045 0 gusting 2 18.9
2020-Jan-24 12:00 065 2 gusting 5 18.9
2020-Jan-24 11:20 049 2 gusting 6 18.9
2020-Jan-24 10:10 051 2 gusting 4 18.9
2020-Jan-24 10:00 060 2 gusting 4 18.9
2020-Jan-24 09:50 041 3 gusting 6 18.9
2020-Jan-24 09:30 018 3 gusting 6 18.9
2020-Jan-24 09:20 018 2 gusting 6 18.9
2020-Jan-24 09:10 040 4 gusting 6 18.9
2020-Jan-24 08:20 030 3 gusting 6 18.9
2020-Jan-24 08:00 010 2 gusting 4 19.4
2020-Jan-24 06:50 083 8 gusting 12 19.4
2020-Jan-24 06:30 088 4 gusting 6 19.4
2020-Jan-24 06:20 066 3 gusting 6 19.4
2020-Jan-24 05:50 071 5 gusting 6 19.4
2020-Jan-24 05:30 066 3 gusting 6 19.4
2020-Jan-24 04:50 094 3 gusting 6 18.9
2020-Jan-24 04:40 052 3 gusting 6 18.9
2020-Jan-24 04:20 031 3 gusting 5 18.9
2020-Jan-24 04:00 046 4 gusting 6 18.9
2020-Jan-24 03:50 053 4 gusting 7 18.9
2020-Jan-24 03:40 069 4 gusting 8 18.9
2020-Jan-24 03:20 072 3 gusting 6 18.9
2020-Jan-24 03:10 051 5 gusting 7 18.9
2020-Jan-24 03:00 043 3 gusting 6 18.9
2020-Jan-24 02:40 023 3 gusting 6 18.9
2020-Jan-24 02:30 036 4 gusting 6 19.4
2020-Jan-24 02:20 033 4 gusting 8 19.4
2020-Jan-24 02:10 034 4 gusting 6 19.4
2020-Jan-24 02:00 055 3 gusting 6 19.4
2020-Jan-24 01:50 057 3 gusting 6 19.4
2020-Jan-24 01:30 038 2 gusting 5 18.9
2020-Jan-24 01:20 038 3 gusting 4 18.9
2020-Jan-24 00:50 006 3 gusting 6 18.9
2020-Jan-24 00:40 006 3 gusting 6 18.9
2020-Jan-24 00:30 003 2 gusting 4 19.4
2020-Jan-24 00:10 002 2 gusting 3 19.4
2020-Jan-24 00:00 348 1 gusting 3 19.4
2020-Jan-23 23:50 353 1 gusting 5 19.4
2020-Jan-23 23:40 005 2 gusting 5 20.0
2020-Jan-23 23:30 002 3 gusting 6 20.0
2020-Jan-23 23:20 010 3 gusting 6 20.6
2020-Jan-23 23:00 038 2 gusting 5 21.1
2020-Jan-23 22:40 048 3 gusting 6 21.7
2020-Jan-23 22:30 056 3 gusting 6 21.7
2020-Jan-23 22:10 070 4 gusting 7 22.2
2020-Jan-23 22:00 057 4 gusting 8 22.2
2020-Jan-23 21:10 055 6 gusting 8 22.8
2020-Jan-23 21:00 041 5 gusting 9 22.8
2020-Jan-23 20:20 044 5 gusting 9 22.8
2020-Jan-23 20:10 026 5 gusting 9 22.2
2020-Jan-23 20:00 021 6 gusting 10 22.2
2020-Jan-23 19:50 030 4 gusting 8 22.2
2020-Jan-23 19:40 032 5 gusting 8 22.2
2020-Jan-23 19:30 050 5 gusting 9 22.2
2020-Jan-23 19:20 031 4 gusting 7 22.2
2020-Jan-23 19:00 043 4 gusting 6 21.7
2020-Jan-23 18:50 048 5 gusting 7 21.7
2020-Jan-23 18:40 037 6 gusting 9 21.7
2020-Jan-23 18:20 060 6 gusting 7 21.1
2020-Jan-23 18:00 040 5 gusting 8 21.1
2020-Jan-23 17:50 032 5 gusting 9 21.1
2020-Jan-23 17:30 051 5 gusting 9 21.1
2020-Jan-23 17:20 028 6 gusting 9 20.6
2020-Jan-23 16:50 010 3 gusting 7 20.6
2020-Jan-23 16:10 005 4 gusting 6 18.9
2020-Jan-23 16:00 017 3 gusting 6 18.9
2020-Jan-23 15:10 063 3 gusting 8 17.8
2020-Jan-23 15:00 059 4 gusting 7 17.2